Kamloops Airport
CYKA : now visible

Airfield :











YOU CAN JOIN US ON...

 
LOGIN :

Register | Disclaimer

   EN    FR    IT 

 









Legend :    VFR   Marginal VFR   IFR   Intensive IFR   Very Intensive IFR
Visi :
Ceiling :
>= 8 km
>= 3000ft
5 to 8 km
1000 to 3000 ft
1500m to 5 km
500 to 1000 ft
800 to 1500m
200 to 500 ft
< 800m
< 200 ft
Symbols :   Thunderstorms  Fog  Heavy snow  Heavy precipitations  Wind > 20 kt






- Airport Elevation : 1133 ft
- IATA code : YKA


CYKA - Kamloops

CURRENT METAR :
  • 221100Z 06012KT 40SM OVC094 11/07 A2971 RMK AC8 SLP067 DENSITY ALT 1200FT

EXPIRED METARs :
  • 221000Z 08007KT 40SM OVC063 12/07 A2973 RMK SC8 SLP074 DENSITY ALT 1300FT
  • 220900Z 10013KT 40SM OVC078 12/06 A2972 RMK AC8 VIRGA SLP070 DENSITY ALT 1300FT

TAF TAF CYKA
Valid from the 22 at 07:00 until the 22 at 19:00 UTC


220640Z 2207/2219 10010KT P6SM SCT080 BKN130
TEMPO 2207/2208 P6SM -RA BKN080
FM220800 10010KT P6SM SCT040 BKN080
TEMPO 2208/2215 P6SM -RA OVC040
FM221500 10008KT P6SM FEW040 BKN100 RMK NXT FCST BY 221300Z
CZVR FIR / North America



MET'MAP, your aeronautical weather chart ! - Copyright ORBIFLY December 2007 - Disclaimer

ORBIFLY MET'MAP TEAM :

Programming & Development : Alexandra Zaïnal
Concept & original design : Baudouin d'Aumeries
Assistance for programming : Marc-Olivier Méhu
Technical & hardware support : Manuel Goepfert

Contact : metmap@orbifly.com




SOURCES & CREDITS :

   NOAA       Earth
Advisory